JOH1427 LFLX-LFPO
Flight info
| Callsign | JOH1427 |
|---|---|
| Flight time | 0h 36m |
| Altitude | 31000 |
| Route | SOPIL DCT BEVOL UT158 AMB |
| Aircraft | E55P/M-SBDFGHJ2RWY/LB2 |
Departure
| Time | 2026-04-17 10:26 |
|---|---|
| Airport | Châteauroux Déols airport (LFLX) |
Arrival
| Time | 2026-04-17 11:02 |
|---|---|
| Airport | Paris-Orly Airport (LFPO) |
| Time | Latitude | Longitude | Altitude | Speed | Heading |
|---|---|---|---|---|---|
| 2026-04-17 10:17 | 46.86081 | 1.72368 | 515 ft | 0 kts | 123° |
| 2026-04-17 10:21 | 46.86076 | 1.72378 | 515 ft | 3 kts | 125° |
| 2026-04-17 10:21 | 46.86027 | 1.72409 | 515 ft | 11 kts | 187° |
| 2026-04-17 10:22 | 46.85939 | 1.72338 | 515 ft | 17 kts | 213° |
| 2026-04-17 10:22 | 46.85826 | 1.72230 | 515 ft | 20 kts | 214° |
| 2026-04-17 10:22 | 46.85719 | 1.72084 | 518 ft | 21 kts | 227° |
| 2026-04-17 10:22 | 46.85612 | 1.71923 | 517 ft | 23 kts | 226° |
| 2026-04-17 10:23 | 46.85505 | 1.71759 | 518 ft | 20 kts | 225° |
| 2026-04-17 10:23 | 46.85407 | 1.71644 | 518 ft | 17 kts | 198° |
| 2026-04-17 10:23 | 46.85303 | 1.71599 | 519 ft | 13 kts | 197° |
| 2026-04-17 10:23 | 46.85227 | 1.71567 | 520 ft | 9 kts | 196° |
| 2026-04-17 10:24 | 46.85171 | 1.71544 | 521 ft | 7 kts | 193° |
| 2026-04-17 10:24 | 46.85118 | 1.71549 | 521 ft | 8 kts | 162° |
| 2026-04-17 10:24 | 46.85064 | 1.71609 | 521 ft | 11 kts | 122° |
| 2026-04-17 10:24 | 46.85018 | 1.71717 | 522 ft | 14 kts | 122° |
| 2026-04-17 10:25 | 46.85012 | 1.71856 | 522 ft | 13 kts | 39° |
| 2026-04-17 10:25 | 46.85055 | 1.71899 | 522 ft | 8 kts | 34° |
| 2026-04-17 10:25 | 46.85310 | 1.72142 | 521 ft | 82 kts | 33° |
| 2026-04-17 10:25 | 46.85983 | 1.72784 | 559 ft | 139 kts | 35° |
| 2026-04-17 10:26 | 46.86775 | 1.73599 | 1015 ft | 146 kts | 37° |
| 2026-04-17 10:26 | 46.87665 | 1.74545 | 1397 ft | 162 kts | 35° |
| 2026-04-17 10:26 | 46.88594 | 1.75398 | 1737 ft | 165 kts | 32° |
| 2026-04-17 10:26 | 46.89581 | 1.76227 | 2533 ft | 161 kts | 24° |
| 2026-04-17 10:27 | 46.90721 | 1.76476 | 3048 ft | 178 kts | 355° |
| 2026-04-17 10:27 | 46.91901 | 1.76033 | 3816 ft | 178 kts | 354° |
| 2026-04-17 10:27 | 46.93102 | 1.76518 | 4309 ft | 196 kts | 37° |
| 2026-04-17 10:27 | 46.94017 | 1.78122 | 4977 ft | 213 kts | 51° |
| 2026-04-17 10:28 | 46.95172 | 1.79551 | 5762 ft | 226 kts | 17° |
| 2026-04-17 10:28 | 46.96699 | 1.79466 | 6726 ft | 233 kts | 339° |
| 2026-04-17 10:28 | 46.97835 | 1.77847 | 7863 ft | 238 kts | 297° |
| 2026-04-17 10:28 | 46.98005 | 1.75517 | 8783 ft | 240 kts | 263° |
| 2026-04-17 10:29 | 46.97646 | 1.73155 | 9418 ft | 242 kts | 264° |
| 2026-04-17 10:29 | 46.97359 | 1.70718 | 10150 ft | 240 kts | 265° |
| 2026-04-17 10:29 | 46.97117 | 1.68306 | 10862 ft | 239 kts | 265° |
| 2026-04-17 10:29 | 46.96901 | 1.65898 | 11598 ft | 237 kts | 265° |
| 2026-04-17 10:30 | 46.96690 | 1.63518 | 12250 ft | 238 kts | 264° |
| 2026-04-17 10:30 | 46.96480 | 1.61109 | 12886 ft | 240 kts | 264° |
| 2026-04-17 10:30 | 46.96255 | 1.58704 | 13513 ft | 242 kts | 261° |
| 2026-04-17 10:30 | 46.95897 | 1.56278 | 14147 ft | 244 kts | 260° |
| 2026-04-17 10:31 | 46.95537 | 1.53815 | 14781 ft | 245 kts | 260° |
| 2026-04-17 10:31 | 46.95180 | 1.51380 | 15397 ft | 247 kts | 260° |
| 2026-04-17 10:31 | 46.94820 | 1.48930 | 16005 ft | 248 kts | 260° |
| 2026-04-17 10:31 | 46.94455 | 1.46452 | 16609 ft | 250 kts | 260° |
| 2026-04-17 10:32 | 46.94091 | 1.43991 | 17197 ft | 251 kts | 260° |
| 2026-04-17 10:32 | 46.93722 | 1.41485 | 17795 ft | 253 kts | 260° |
| 2026-04-17 10:32 | 46.93351 | 1.38986 | 18383 ft | 254 kts | 260° |
| 2026-04-17 10:32 | 46.92974 | 1.36447 | 18967 ft | 256 kts | 260° |
| 2026-04-17 10:33 | 46.92608 | 1.33924 | 19538 ft | 257 kts | 263° |
| 2026-04-17 10:33 | 46.92907 | 1.31387 | 20071 ft | 262 kts | 294° |
| 2026-04-17 10:33 | 46.93816 | 1.29088 | 20624 ft | 264 kts | 295° |
| 2026-04-17 10:33 | 46.94715 | 1.26736 | 21168 ft | 267 kts | 295° |
| 2026-04-17 10:34 | 46.95618 | 1.24345 | 21710 ft | 269 kts | 295° |
| 2026-04-17 10:34 | 46.96516 | 1.21949 | 22239 ft | 271 kts | 294° |
| 2026-04-17 10:34 | 46.97412 | 1.19541 | 22757 ft | 273 kts | 294° |
| 2026-04-17 10:34 | 46.98323 | 1.17085 | 23274 ft | 275 kts | 294° |
| 2026-04-17 10:35 | 46.99249 | 1.14582 | 23790 ft | 278 kts | 294° |
| 2026-04-17 10:35 | 47.00158 | 1.12113 | 24291 ft | 280 kts | 294° |
| 2026-04-17 10:35 | 47.01089 | 1.09581 | 24797 ft | 282 kts | 293° |
| 2026-04-17 10:35 | 47.02001 | 1.07088 | 25283 ft | 283 kts | 292° |
| 2026-04-17 10:36 | 47.02365 | 1.04314 | 25742 ft | 277 kts | 263° |
| 2026-04-17 10:36 | 47.02070 | 1.01521 | 26260 ft | 278 kts | 262° |
| 2026-04-17 10:36 | 47.01782 | 0.98748 | 26744 ft | 279 kts | 262° |
| 2026-04-17 10:36 | 47.01788 | 0.95915 | 27200 ft | 285 kts | 282° |
| 2026-04-17 10:37 | 47.02864 | 0.93431 | 27638 ft | 304 kts | 310° |
| 2026-04-17 10:37 | 47.04819 | 0.91982 | 28076 ft | 333 kts | 337° |
| 2026-04-17 10:37 | 47.07225 | 0.91977 | 28219 ft | 367 kts | 3° |
| 2026-04-17 10:37 | 47.09641 | 0.93528 | 28247 ft | 395 kts | 22° |
| 2026-04-17 10:38 | 47.12095 | 0.95242 | 28239 ft | 397 kts | 14° |
| 2026-04-17 10:38 | 47.17361 | 0.97802 | 28092 ft | 408 kts | 7° |
| 2026-04-17 10:38 | 47.20159 | 0.98879 | 27651 ft | 424 kts | 6° |
| 2026-04-17 10:39 | 47.23055 | 0.99914 | 27187 ft | 427 kts | 6° |
| 2026-04-17 10:39 | 47.25865 | 1.00884 | 26727 ft | 412 kts | 5° |
| 2026-04-17 10:39 | 47.28600 | 1.01802 | 26282 ft | 398 kts | 5° |
| 2026-04-17 10:39 | 47.31265 | 1.02679 | 25849 ft | 385 kts | 4° |
| 2026-04-17 10:40 | 47.33850 | 1.03522 | 25430 ft | 376 kts | 4° |
| 2026-04-17 10:40 | 47.36382 | 1.04344 | 25022 ft | 373 kts | 4° |
| 2026-04-17 10:40 | 47.38868 | 1.05146 | 24619 ft | 370 kts | 4° |
| 2026-04-17 10:40 | 47.41376 | 1.05956 | 24295 ft | 364 kts | 4° |
| 2026-04-17 10:41 | 47.43772 | 1.06920 | 24242 ft | 356 kts | 11° |
| 2026-04-17 10:41 | 47.46080 | 1.08096 | 24234 ft | 343 kts | 11° |
| 2026-04-17 10:41 | 47.48267 | 1.09216 | 24233 ft | 332 kts | 11° |
| 2026-04-17 10:41 | 47.50443 | 1.10328 | 23910 ft | 332 kts | 10° |
| 2026-04-17 10:42 | 47.52633 | 1.11427 | 23298 ft | 340 kts | 11° |
| 2026-04-17 10:42 | 47.54873 | 1.12555 | 22682 ft | 347 kts | 11° |
| 2026-04-17 10:42 | 47.57165 | 1.13715 | 22042 ft | 352 kts | 11° |
| 2026-04-17 10:42 | 47.59491 | 1.14895 | 21431 ft | 354 kts | 12° |
| 2026-04-17 10:43 | 47.61816 | 1.16078 | 20897 ft | 353 kts | 12° |
| 2026-04-17 10:43 | 47.64111 | 1.17248 | 20479 ft | 349 kts | 12° |
| 2026-04-17 10:43 | 47.66371 | 1.18400 | 20067 ft | 346 kts | 12° |
| 2026-04-17 10:43 | 47.68630 | 1.19553 | 19657 ft | 342 kts | 12° |
| 2026-04-17 10:44 | 47.70854 | 1.20688 | 19254 ft | 339 kts | 12° |
| 2026-04-17 10:44 | 47.73075 | 1.21823 | 18852 ft | 336 kts | 12° |
| 2026-04-17 10:44 | 47.75272 | 1.22946 | 18455 ft | 333 kts | 12° |
| 2026-04-17 10:44 | 47.77440 | 1.24055 | 18064 ft | 331 kts | 12° |
| 2026-04-17 10:45 | 47.79616 | 1.25169 | 17672 ft | 328 kts | 12° |
| 2026-04-17 10:45 | 47.81761 | 1.26268 | 17285 ft | 325 kts | 12° |
| 2026-04-17 10:45 | 47.83876 | 1.27352 | 16904 ft | 323 kts | 12° |
| 2026-04-17 10:45 | 47.86013 | 1.28449 | 16519 ft | 321 kts | 12° |
| 2026-04-17 10:46 | 47.88112 | 1.29527 | 16141 ft | 318 kts | 12° |
| 2026-04-17 10:46 | 47.90203 | 1.30602 | 15764 ft | 316 kts | 13° |
| 2026-04-17 10:46 | 47.92256 | 1.31658 | 15393 ft | 314 kts | 13° |
| 2026-04-17 10:46 | 47.94306 | 1.32714 | 15024 ft | 312 kts | 13° |
| 2026-04-17 10:47 | 47.96375 | 1.33780 | 14651 ft | 310 kts | 13° |
| 2026-04-17 10:47 | 47.98385 | 1.34817 | 14288 ft | 308 kts | 13° |
| 2026-04-17 10:47 | 48.00417 | 1.35866 | 13922 ft | 306 kts | 13° |
| 2026-04-17 10:47 | 48.02425 | 1.36903 | 13559 ft | 305 kts | 13° |
| 2026-04-17 10:48 | 48.04400 | 1.37925 | 13286 ft | 299 kts | 13° |
| 2026-04-17 10:48 | 48.06289 | 1.39135 | 13235 ft | 295 kts | 27° |
| 2026-04-17 10:48 | 48.07973 | 1.40814 | 13046 ft | 294 kts | 28° |
| 2026-04-17 10:48 | 48.09674 | 1.42517 | 12715 ft | 294 kts | 28° |
| 2026-04-17 10:49 | 48.11365 | 1.44215 | 12380 ft | 295 kts | 28° |
| 2026-04-17 10:49 | 48.13044 | 1.45908 | 12254 ft | 287 kts | 28° |
| 2026-04-17 10:49 | 48.14694 | 1.47573 | 12037 ft | 285 kts | 28° |
| 2026-04-17 10:49 | 48.16335 | 1.49226 | 11687 ft | 285 kts | 28° |
| 2026-04-17 10:50 | 48.17973 | 1.50876 | 11333 ft | 286 kts | 29° |
| 2026-04-17 10:50 | 48.19613 | 1.52533 | 10974 ft | 286 kts | 29° |
| 2026-04-17 10:50 | 48.21285 | 1.54225 | 10606 ft | 287 kts | 29° |
| 2026-04-17 10:50 | 48.22916 | 1.55879 | 10301 ft | 284 kts | 30° |
| 2026-04-17 10:51 | 48.24495 | 1.57577 | 10243 ft | 272 kts | 33° |
| 2026-04-17 10:51 | 48.25978 | 1.59255 | 10236 ft | 263 kts | 32° |
| 2026-04-17 10:51 | 48.27436 | 1.60903 | 10237 ft | 264 kts | 33° |
| 2026-04-17 10:51 | 48.28911 | 1.62587 | 10239 ft | 266 kts | 33° |
| 2026-04-17 10:52 | 48.30378 | 1.64262 | 10239 ft | 268 kts | 33° |
| 2026-04-17 10:52 | 48.31894 | 1.65990 | 10236 ft | 270 kts | 33° |
| 2026-04-17 10:52 | 48.33401 | 1.67721 | 10169 ft | 275 kts | 34° |
| 2026-04-17 10:52 | 48.34930 | 1.69468 | 9822 ft | 282 kts | 34° |
| 2026-04-17 10:53 | 48.36493 | 1.71267 | 9467 ft | 288 kts | 34° |
| 2026-04-17 10:53 | 48.38114 | 1.73139 | 9092 ft | 293 kts | 34° |
| 2026-04-17 10:53 | 48.39745 | 1.75013 | 8711 ft | 297 kts | 35° |
| 2026-04-17 10:53 | 48.41383 | 1.76901 | 8327 ft | 299 kts | 35° |
| 2026-04-17 10:54 | 48.43023 | 1.78793 | 7943 ft | 297 kts | 36° |
| 2026-04-17 10:54 | 48.44664 | 1.80682 | 7560 ft | 293 kts | 36° |
| 2026-04-17 10:54 | 48.46253 | 1.82546 | 7185 ft | 289 kts | 35° |
| 2026-04-17 10:54 | 48.47849 | 1.84382 | 6813 ft | 286 kts | 36° |
| 2026-04-17 10:55 | 48.49414 | 1.86193 | 6449 ft | 284 kts | 36° |
| 2026-04-17 10:55 | 48.50967 | 1.87993 | 6088 ft | 281 kts | 37° |
| 2026-04-17 10:55 | 48.52526 | 1.89804 | 5724 ft | 280 kts | 37° |
| 2026-04-17 10:55 | 48.54059 | 1.91585 | 5366 ft | 278 kts | 37° |
| 2026-04-17 10:56 | 48.55569 | 1.93340 | 5013 ft | 275 kts | 37° |
| 2026-04-17 10:56 | 48.57088 | 1.95118 | 4657 ft | 272 kts | 38° |
| 2026-04-17 10:56 | 48.58578 | 1.96843 | 4326 ft | 268 kts | 37° |
| 2026-04-17 10:56 | 48.59994 | 1.98519 | 4241 ft | 253 kts | 41° |
| 2026-04-17 10:57 | 48.60929 | 2.00629 | 4235 ft | 234 kts | 61° |
| 2026-04-17 10:57 | 48.61694 | 2.02731 | 4231 ft | 218 kts | 63° |
| 2026-04-17 10:57 | 48.62384 | 2.04679 | 4229 ft | 204 kts | 63° |
| 2026-04-17 10:57 | 48.63049 | 2.06545 | 4003 ft | 204 kts | 62° |
| 2026-04-17 10:58 | 48.63725 | 2.08446 | 3781 ft | 201 kts | 61° |
| 2026-04-17 10:58 | 48.64383 | 2.10286 | 3518 ft | 199 kts | 62° |
| 2026-04-17 10:58 | 48.65041 | 2.12103 | 3254 ft | 197 kts | 62° |
| 2026-04-17 10:58 | 48.65698 | 2.13937 | 2986 ft | 195 kts | 63° |
| 2026-04-17 10:59 | 48.66333 | 2.15729 | 2721 ft | 193 kts | 63° |
| 2026-04-17 10:59 | 48.66962 | 2.17519 | 2457 ft | 192 kts | 62° |
| 2026-04-17 10:59 | 48.67594 | 2.19286 | 2195 ft | 191 kts | 62° |
| 2026-04-17 10:59 | 48.68191 | 2.20975 | 1979 ft | 168 kts | 61° |
| 2026-04-17 11:00 | 48.68721 | 2.22450 | 1735 ft | 153 kts | 62° |
| 2026-04-17 11:00 | 48.69213 | 2.23828 | 1522 ft | 145 kts | 62° |
| 2026-04-17 11:00 | 48.69675 | 2.25149 | 1328 ft | 139 kts | 62° |
| 2026-04-17 11:00 | 48.70124 | 2.26410 | 1143 ft | 134 kts | 63° |
| 2026-04-17 11:01 | 48.70557 | 2.27631 | 968 ft | 130 kts | 64° |
| 2026-04-17 11:01 | 48.70987 | 2.28854 | 789 ft | 129 kts | 62° |
| 2026-04-17 11:01 | 48.71411 | 2.30028 | 616 ft | 125 kts | 61° |
| 2026-04-17 11:01 | 48.71807 | 2.31151 | 446 ft | 117 kts | 63° |
| 2026-04-17 11:02 | 48.72172 | 2.32175 | 297 ft | 104 kts | 63° |
| 2026-04-17 11:02 | 48.72481 | 2.33056 | 271 ft | 78 kts | 61° |
| 2026-04-17 11:02 | 48.72683 | 2.33632 | 273 ft | 49 kts | 61° |
| 2026-04-17 11:02 | 48.72763 | 2.33959 | 276 ft | 23 kts | 80° |
| 2026-04-17 11:03 | 48.72785 | 2.34191 | 276 ft | 20 kts | 82° |
| 2026-04-17 11:03 | 48.72804 | 2.34391 | 276 ft | 18 kts | 82° |
| 2026-04-17 11:03 | 48.72822 | 2.34584 | 276 ft | 18 kts | 82° |
| 2026-04-17 11:03 | 48.72842 | 2.34780 | 276 ft | 19 kts | 81° |
| 2026-04-17 11:04 | 48.72860 | 2.34974 | 276 ft | 17 kts | 82° |
| 2026-04-17 11:04 | 48.72841 | 2.35146 | 276 ft | 17 kts | 126° |
| 2026-04-17 11:04 | 48.72742 | 2.35243 | 276 ft | 16 kts | 162° |
| 2026-04-17 11:04 | 48.72671 | 2.35226 | 276 ft | 10 kts | 258° |
| 2026-04-17 11:05 | 48.72658 | 2.35148 | 276 ft | 0 kts | 253° |